Bloom, Kansas
Current Conditions -  °F | °C
As of 8:52 PM on Tuesday 25 Nov 2014 (Local Time) from KDDC Reporting Station
Clear Clear  
Wind Chill: 31°   Ceiling: Unl
Heat Index: 37°   Visibility: 10mi
Dew Point: 16°   Wind: 8mph
Humidity: 42%   Direction: 200°SSW
Pressure: 29.92"   Gusts: NA
Location:  37.3916°N, 99.8236°W
Report Text: KDDC 260252Z AUTO 20007KT 10SM CLR 03/M09 A2992 RMK AO2 SLP149 T00281089 58002
Loading
Personal Weather Stations






























Interactive Weather Map New forecast layout! Learn more

10-Day Weather Forecast

Advertisements
Track Severe Weather on mobile